Deer Lodge (38S)
Deer Lodge, MT
Field Elevation: 4692
Lat: 49°23.27N  Long: 112°45.89W
CTAF/Unicom Freq: 120.0250
   
     For Weather-by-Phone, call 406-846-1177
Weather Advisories
10/25/2014 08:39 Z
Altimeter 30.09" Hg
Wind 270° @ 3 KT
Gusts --
Visibility 3 SM
Temperature 2° C (36° F)
Dewpoint 2° C (36° F)
Relative Humidity 97%
Density Altitude --
Condensation Altitude 4,700 feet
Wind Chill 0° C (32° F)
  Wind and Runways
Indicated Runway = 31
History
 
 
More Info
All DigiWx sites map
Weather Radar
NOAA Forecast
 
Airport IQ 5010
(S59) Libby
(6S5) Ravalli County
 
about DigiWx
 
FAA Disclaimer: The data displayed is for advisory purposes only and is not to be used for flight planning or operations. For official data, please call 406-846-1177 to hear the current automated AWOS voice message.
  METAR 38S 250839Z AUTO 27003KT 3SM 02/02 A3009